createdAt,value
2023-04-25T04:00:58.031Z,23.59
2023-04-25T05:30:52.804Z,23.52
2023-04-25T05:43:23.292Z,23.55
2023-04-25T05:48:22.086Z,23.52
2023-04-25T05:53:29.692Z,23.52
2023-04-25T05:55:59.003Z,23.55
2023-04-25T05:58:28.486Z,23.53
2023-04-25T06:00:57.889Z,23.53
2023-04-25T06:10:58.682Z,23.54
2023-04-25T06:13:27.988Z,23.52
2023-04-25T06:18:26.650Z,23.52
2023-04-25T06:23:25.304Z,23.53
2023-04-25T06:25:57.208Z,28.59
2023-04-25T06:28:26.507Z,23.53
2023-04-25T06:30:55.913Z,23.59
2023-04-25T06:33:25.526Z,23.54
2023-04-25T06:35:54.810Z,23.58
2023-04-25T06:38:24.113Z,23.53
2023-04-25T06:40:53.389Z,23.59
2023-04-25T06:45:54.860Z,23.55
2023-04-25T06:48:24.167Z,23.53
2023-04-25T06:50:53.508Z,23.55
2023-04-25T06:53:22.787Z,23.51
2023-04-25T06:55:52.112Z,23.53
2023-04-25T06:58:21.409Z,23.53
2023-04-25T07:00:53.292Z,23.55
2023-04-25T07:03:22.977Z,23.53
2023-04-25T07:05:52.542Z,23.55
2023-04-25T07:08:22.496Z,23.53
2023-04-25T07:10:51.771Z,23.52
2023-04-25T07:13:21.340Z,23.52
2023-04-25T07:15:53.747Z,23.52
2023-04-25T07:18:24.201Z,23.54
2023-04-25T07:20:53.726Z,23.55
2023-04-25T07:23:23.465Z,23.59
2023-04-25T07:25:52.762Z,23.58
2023-04-25T07:28:22.094Z,23.53
2023-04-25T07:30:54.097Z,23.52
2023-04-25T07:33:24.456Z,23.53
2023-04-25T07:38:23.182Z,23.54
2023-04-25T07:40:52.553Z,23.53
2023-04-25T07:43:21.879Z,23.55
2023-04-25T07:45:51.177Z,23.55
2023-04-25T08:50:56.160Z,0.00
2023-04-25T09:13:30.650Z,23.55
2023-04-25T09:26:06.027Z,23.52
2023-04-25T11:12:06.107Z,23.51
2023-04-25T11:22:07.919Z,100.00
2023-04-25T11:24:38.138Z,100.00
2023-04-25T11:27:07.556Z,100.00
2023-04-25T11:29:37.347Z,100.00
2023-04-25T11:32:09.308Z,100.00
2023-04-25T11:34:38.641Z,100.00
2023-04-25T11:37:08.015Z,100.00
2023-04-25T11:39:37.292Z,100.00
2023-04-25T11:42:08.701Z,100.00
2023-04-25T11:44:43.599Z,0.00
2023-04-25T11:47:15.744Z,23.51
2023-04-25T11:49:45.264Z,100.00
2023-04-25T11:52:14.700Z,15.11
2023-04-25T11:54:44.023Z,100.00
2023-04-25T11:57:13.320Z,0.00
2023-04-25T11:59:42.770Z,100.00
2023-04-25T12:02:12.682Z,15.54
2023-04-25T12:04:44.833Z,100.00
2023-04-25T12:07:14.273Z,0.00
2023-04-25T12:09:43.772Z,0.00
2023-04-25T13:09:54.168Z,23.52
2023-04-25T13:19:51.761Z,23.53
2023-04-25T13:22:21.373Z,23.52
2023-04-25T15:32:31.844Z,23.52
2023-04-25T15:40:04.931Z,23.09
2023-04-25T16:57:43.700Z,23.52
2023-04-25T21:45:34.806Z,24.15
2023-04-25T22:15:38.290Z,23.52
2023-04-25T22:18:08.721Z,0.00
2023-04-25T22:20:39.041Z,23.59
2023-04-25T22:23:08.951Z,23.59
2023-04-25T22:25:38.298Z,23.55
2023-04-25T22:28:07.651Z,23.58
2023-04-25T22:30:39.566Z,23.58
2023-04-25T22:33:08.904Z,23.58
2023-04-25T22:35:38.290Z,23.58
2023-04-25T22:38:07.609Z,23.58
2023-04-25T22:40:36.937Z,23.59
2023-04-25T22:43:06.595Z,23.58
2023-04-25T22:45:38.845Z,23.59
2023-04-25T22:48:08.959Z,23.59
2023-04-25T22:50:40.739Z,43.87
2023-04-25T22:53:10.374Z,33.67
2023-04-25T22:55:40.020Z,0.00
2023-04-25T22:58:10.299Z,33.67
2023-04-25T23:00:42.430Z,33.67
2023-04-25T23:03:12.067Z,23.56
2023-04-25T23:05:41.448Z,100.00
2023-04-25T23:08:10.741Z,100.00
2023-04-25T23:10:40.044Z,100.00
2023-04-25T23:13:09.689Z,100.00
2023-04-25T23:15:39.003Z,100.00
2023-04-25T23:18:10.993Z,100.00
2023-04-25T23:20:40.381Z,100.00
2023-04-25T23:23:09.880Z,100.00
2023-04-25T23:25:40.148Z,100.00
2023-04-25T23:28:09.744Z,100.00
2023-04-25T23:30:39.097Z,100.00
2023-04-25T23:33:11.067Z,100.00
2023-04-25T23:35:40.372Z,100.00
2023-04-25T23:38:09.675Z,100.00
2023-04-25T23:40:38.987Z,100.00
2023-04-25T23:43:08.328Z,100.00
2023-04-25T23:45:37.647Z,100.00
2023-04-25T23:48:07.171Z,100.00
2023-04-25T23:50:39.108Z,100.00
2023-04-25T23:53:08.448Z,100.00
2023-04-25T23:55:40.914Z,100.00
2023-04-25T23:58:10.343Z,100.00
